Enid, Oklahoma
Current Conditions -  °F | °C
As of 2:50 PM on Saturday 20 Dec 2014 (Local Time) from KWDG Reporting Station
Overcast Overcast  
Wind Chill: 39°   Ceiling: 2000
Heat Index: 45°   Visibility: 7mi
Dew Point: 39°   Wind: 12mph
Humidity: 81%   Direction: 160°SSE
Pressure: 30.12"   Gusts: NA
Location:  36.4°N, 97.88°W
Report Text: KWDG 202050Z 16010KT 7SM OVC020 07/04 A3012
Loading
Personal Weather Stations






























Interactive Weather Map New forecast layout! Learn more

10-Day Weather Forecast

Advertisements
Track Severe Weather on mobile